Time;durP1;ratioP1;P1;durP2;ratioP2;P2;SDS_P1;SDS_P2;PMS_P1;PMS_P2;Temp;Humidity;BMP_temperature;BMP_pressure;BME280_temperature;BME280_humidity;BME280_pressure;Samples;Min_cycle;Max_cycle;Signal;HPM_P1;HPM_P2
2021/07/07 00:01:56;;;;;;;3.38;2.78;;;15.30;99.90;;;;;;5049997;28;20029;-68
2021/07/07 00:04:22;;;;;;;4.75;3.38;;;15.30;99.90;;;;;;5045984;28;20028;-67
2021/07/07 00:06:47;;;;;;;4.05;3.17;;;15.30;99.90;;;;;;5036212;28;20454;-67
2021/07/07 00:09:13;;;;;;;3.60;3.30;;;15.30;99.90;;;;;;5047229;28;20045;-68
2021/07/07 00:11:39;;;;;;;6.75;3.20;;;15.30;99.90;;;;;;5034743;28;20021;-68
2021/07/07 00:14:04;;;;;;;4.20;3.22;;;15.30;99.90;;;;;;5035217;28;20064;-68
2021/07/07 00:16:30;;;;;;;3.30;2.92;;;15.30;99.90;;;;;;5034839;28;20037;-67
2021/07/07 00:18:56;;;;;;;2.95;2.50;;;15.30;99.90;;;;;;5043596;28;20036;-68
2021/07/07 00:21:21;;;;;;;3.20;2.90;;;15.30;99.90;;;;;;5054127;28;20079;-67
2021/07/07 00:23:48;;;;;;;5.10;2.92;;;15.30;99.90;;;;;;5054767;28;20494;-67
2021/07/07 00:26:13;;;;;;;4.53;2.95;;;15.30;99.90;;;;;;5052538;28;20408;-67
2021/07/07 00:28:39;;;;;;;2.80;2.60;;;15.30;99.90;;;;;;5044531;28;20029;-66
2021/07/07 00:31:04;;;;;;;6.43;3.30;;;15.30;99.90;;;;;;5054252;28;20036;-66
2021/07/07 00:33:30;;;;;;;4.80;3.35;;;15.30;99.90;;;;;;5052599;28;20146;-66
2021/07/07 00:35:56;;;;;;;4.30;3.03;;;15.30;99.90;;;;;;5052930;28;20112;-66
2021/07/07 00:38:21;;;;;;;4.10;2.67;;;15.30;99.90;;;;;;5053499;28;20029;-66
2021/07/07 00:40:47;;;;;;;3.28;2.97;;;15.30;99.90;;;;;;5054385;28;20147;-66
2021/07/07 00:43:15;;;;;;;2.70;2.50;;;15.30;99.90;;;;;;5036877;28;20057;-66
2021/07/07 00:45:41;;;;;;;3.33;2.50;;;15.20;99.90;;;;;;5034237;28;20037;-66
2021/07/07 00:48:07;;;;;;;5.47;2.67;;;15.20;99.90;;;;;;5034686;28;20401;-66
2021/07/07 00:50:33;;;;;;;3.65;3.05;;;15.20;99.90;;;;;;5034146;28;20124;-65
2021/07/07 00:52:59;;;;;;;3.85;2.75;;;15.30;99.90;;;;;;5037931;28;20419;-66
2021/07/07 00:55:25;;;;;;;3.92;2.50;;;15.20;99.90;;;;;;5051490;28;20060;-66
2021/07/07 00:57:52;;;;;;;3.08;2.78;;;15.20;99.90;;;;;;5034419;28;20029;-65
2021/07/07 01:00:23;;;;;;;2.95;2.72;;;15.30;99.90;;;;;;5034334;28;20037;-67
2021/07/07 01:02:52;;;;;;;5.28;2.70;;;15.30;99.90;;;;;;5051766;28;20032;-66
2021/07/07 01:05:17;;;;;;;2.97;2.65;;;15.30;99.90;;;;;;5034217;28;20026;-68
2021/07/07 01:07:44;;;;;;;4.47;3.30;;;15.30;99.90;;;;;;5034678;28;20036;-66
2021/07/07 01:10:11;;;;;;;3.15;2.85;;;15.30;99.90;;;;;;5039829;28;20047;-66
2021/07/07 01:12:37;;;;;;;3.80;2.88;;;15.40;99.90;;;;;;5053628;28;20277;-66
2021/07/07 01:15:06;;;;;;;3.88;2.85;;;15.40;99.90;;;;;;5053537;28;20021;-66
2021/07/07 01:17:32;;;;;;;5.97;3.25;;;15.40;99.90;;;;;;5052980;28;20099;-66
2021/07/07 01:20:20;;;;;;;5.53;3.10;;;15.40;99.90;;;;;;5052624;28;20028;-66
2021/07/07 01:22:45;;;;;;;4.68;3.25;;;15.40;99.90;;;;;;5052217;28;20025;-66
2021/07/07 01:25:13;;;;;;;4.22;3.75;;;15.40;99.90;;;;;;5044306;28;20454;-68
2021/07/07 01:27:41;;;;;;;6.72;3.75;;;15.30;99.90;;;;;;5050007;28;20033;-66
2021/07/07 01:30:09;;;;;;;7.82;4.10;;;15.30;99.90;;;;;;5037564;28;20036;-66
2021/07/07 01:32:35;;;;;;;6.40;4.13;;;15.30;99.90;;;;;;5051406;28;20389;-66
2021/07/07 01:35:03;;;;;;;6.75;5.00;;;15.40;99.90;;;;;;5053418;28;20414;-66
2021/07/07 01:37:29;;;;;;;6.85;5.57;;;15.40;99.90;;;;;;5049557;28;20476;-66
2021/07/07 01:39:55;;;;;;;6.07;5.18;;;15.40;99.90;;;;;;5032712;28;20030;-66
2021/07/07 01:42:21;;;;;;;7.13;5.00;;;15.40;99.90;;;;;;5034402;28;20029;-66
2021/07/07 01:44:46;;;;;;;8.20;5.28;;;15.40;99.90;;;;;;5033803;28;20030;-66
2021/07/07 01:47:12;;;;;;;8.45;4.85;;;15.40;99.90;;;;;;5037738;28;20041;-67
2021/07/07 01:49:38;;;;;;;6.50;4.82;;;15.40;99.90;;;;;;5052586;28;20090;-66
2021/07/07 01:52:04;;;;;;;7.55;5.40;;;15.40;99.90;;;;;;5051286;28;20035;-66
2021/07/07 01:54:29;;;;;;;6.97;5.70;;;15.40;99.90;;;;;;5039464;28;20068;-66
2021/07/07 01:56:55;;;;;;;9.95;5.95;;;15.50;99.90;;;;;;5033676;28;20063;-66
2021/07/07 01:59:21;;;;;;;9.25;5.47;;;15.50;99.90;;;;;;5049070;28;20029;-66
2021/07/07 02:01:47;;;;;;;7.07;6.05;;;15.60;99.90;;;;;;5051818;28;20040;-66
2021/07/07 02:04:13;;;;;;;8.52;6.38;;;15.60;99.90;;;;;;5052462;28;20028;-66
2021/07/07 02:06:38;;;;;;;9.43;6.30;;;15.60;99.90;;;;;;5039827;28;20412;-66
2021/07/07 02:09:07;;;;;;;8.07;5.55;;;15.50;99.90;;;;;;5033247;28;20030;-66
2021/07/07 02:11:36;;;;;;;8.70;5.72;;;15.50;99.90;;;;;;5032649;28;20043;-66
2021/07/07 02:14:03;;;;;;;8.95;5.82;;;15.50;99.90;;;;;;5040322;28;20039;-66
2021/07/07 02:16:28;;;;;;;9.60;6.78;;;15.50;99.90;;;;;;5043019;28;20083;-66
2021/07/07 02:18:54;;;;;;;8.68;6.55;;;15.50;99.90;;;;;;5040986;28;20024;-66
2021/07/07 02:21:20;;;;;;;8.82;6.05;;;15.50;99.90;;;;;;5044289;28;20108;-69
2021/07/07 02:23:46;;;;;;;6.72;5.97;;;15.50;99.90;;;;;;5050977;28;20055;-66
2021/07/07 02:26:11;;;;;;;9.40;6.93;;;15.50;99.90;;;;;;5051986;28;20029;-66
2021/07/07 02:28:37;;;;;;;9.80;7.07;;;15.50;99.90;;;;;;5051453;28;20056;-66
2021/07/07 02:31:03;;;;;;;8.68;7.03;;;15.50;99.90;;;;;;5050652;28;20033;-66
2021/07/07 02:33:28;;;;;;;12.07;8.80;;;15.50;99.90;;;;;;5042897;28;20040;-66
2021/07/07 02:35:54;;;;;;;11.23;7.43;;;15.50;99.90;;;;;;5041414;28;20033;-66
2021/07/07 02:38:22;;;;;;;11.38;7.55;;;15.50;99.90;;;;;;5032233;28;20494;-69
2021/07/07 02:40:49;;;;;;;13.50;8.75;;;15.50;99.90;;;;;;5033775;28;20083;-66
2021/07/07 02:43:15;;;;;;;14.77;9.18;;;15.50;99.90;;;;;;5044126;28;20032;-66
2021/07/07 02:45:42;;;;;;;11.15;8.80;;;15.50;99.90;;;;;;5049694;28;20489;-66
2021/07/07 02:48:09;;;;;;;12.60;8.27;;;15.50;99.90;;;;;;5035017;28;20041;-66
2021/07/07 02:50:37;;;;;;;10.52;6.72;;;15.50;99.90;;;;;;5032070;28;20037;-65
2021/07/07 02:53:03;;;;;;;11.30;8.13;;;15.50;99.90;;;;;;5032593;28;20387;-65
2021/07/07 02:55:29;;;;;;;13.52;9.07;;;15.50;99.90;;;;;;5032221;28;20049;-66
2021/07/07 02:58:02;;;;;;;15.93;9.07;;;15.50;99.90;;;;;;5032265;28;20036;-66
2021/07/07 03:00:37;;;;;;;13.00;9.00;;;15.50;99.90;;;;;;5033925;28;20545;-65
2021/07/07 03:03:06;;;;;;;12.68;8.10;;;15.60;99.90;;;;;;5032858;28;20056;-66
2021/07/07 03:05:34;;;;;;;14.68;9.70;;;15.60;99.90;;;;;;5041379;28;20033;-66
2021/07/07 03:08:00;;;;;;;14.25;9.70;;;15.60;99.90;;;;;;5050538;28;20033;-66
2021/07/07 03:10:26;;;;;;;12.93;8.85;;;15.60;99.90;;;;;;5043655;28;20033;-66
2021/07/07 03:12:52;;;;;;;11.27;8.55;;;15.60;99.90;;;;;;5032321;28;20025;-65
2021/07/07 03:15:17;;;;;;;14.10;9.20;;;15.60;99.90;;;;;;5033039;28;20048;-66
2021/07/07 03:17:43;;;;;;;13.45;9.48;;;15.60;99.90;;;;;;5055799;28;20034;-66
2021/07/07 03:20:09;;;;;;;9.30;8.02;;;15.60;99.90;;;;;;5048333;28;20032;-66
2021/07/07 03:22:36;;;;;;;9.02;7.10;;;15.60;99.90;;;;;;5050951;28;20029;-66
2021/07/07 03:25:04;;;;;;;9.55;8.15;;;15.60;99.90;;;;;;5051454;28;20033;-66
2021/07/07 03:27:29;;;;;;;12.77;9.80;;;15.50;99.90;;;;;;5049197;28;20029;-65
2021/07/07 03:29:55;;;;;;;16.67;10.32;;;15.50;99.90;;;;;;5032068;28;20029;-65
2021/07/07 03:32:20;;;;;;;12.48;10.20;;;15.60;99.90;;;;;;5040417;28;20033;-65
2021/07/07 03:34:46;;;;;;;16.55;10.20;;;15.60;99.90;;;;;;5038932;28;20031;-65
2021/07/07 03:37:12;;;;;;;16.05;11.05;;;15.60;99.90;;;;;;5032698;28;20103;-66
2021/07/07 03:39:37;;;;;;;16.50;11.50;;;15.60;99.90;;;;;;5045892;28;20040;-65
2021/07/07 03:42:03;;;;;;;18.73;12.68;;;15.60;99.90;;;;;;5047566;28;20466;-66
2021/07/07 03:44:29;;;;;;;13.90;10.93;;;15.60;99.90;;;;;;5049067;28;20017;-66
2021/07/07 03:46:54;;;;;;;17.45;12.57;;;15.60;99.90;;;;;;5053038;28;20033;-66
2021/07/07 03:49:20;;;;;;;14.63;12.10;;;15.60;99.90;;;;;;5053840;28;20087;-66
2021/07/07 03:51:45;;;;;;;12.85;11.05;;;15.60;99.90;;;;;;5051631;28;20024;-66
2021/07/07 03:54:11;;;;;;;13.18;10.88;;;15.60;99.90;;;;;;5051372;28;20126;-66
2021/07/07 03:56:37;;;;;;;13.60;11.23;;;15.50;99.90;;;;;;5049541;28;20092;-66
2021/07/07 03:59:02;;;;;;;13.65;10.38;;;15.50;99.90;;;;;;5051513;28;20513;-66
2021/07/07 04:01:28;;;;;;;12.48;10.63;;;15.50;99.90;;;;;;5051497;28;20131;-66
2021/07/07 04:03:54;;;;;;;11.15;10.00;;;15.60;99.90;;;;;;5051252;28;20382;-65
2021/07/07 04:06:20;;;;;;;12.27;9.48;;;15.60;99.90;;;;;;5052486;28;20497;-65
2021/07/07 04:08:45;;;;;;;8.45;7.60;;;15.70;99.90;;;;;;5050640;28;20028;-66
2021/07/07 04:11:11;;;;;;;8.95;6.72;;;15.70;99.90;;;;;;5049600;28;20412;-65
2021/07/07 04:13:37;;;;;;;7.18;5.95;;;15.70;99.90;;;;;;5050965;28;20040;-66
2021/07/07 04:16:02;;;;;;;6.97;6.05;;;15.60;99.90;;;;;;5052293;28;20028;-66
2021/07/07 04:18:28;;;;;;;9.55;6.63;;;15.50;99.90;;;;;;5052934;28;20043;-66
2021/07/07 04:20:53;;;;;;;6.82;6.10;;;15.50;99.90;;;;;;5046862;28;20027;-66
2021/07/07 04:23:19;;;;;;;8.45;6.35;;;15.40;99.90;;;;;;5052888;28;20489;-65
2021/07/07 04:25:45;;;;;;;7.50;5.78;;;15.40;99.90;;;;;;5051691;28;20029;-65
2021/07/07 04:28:10;;;;;;;6.97;6.25;;;15.40;99.90;;;;;;5050824;28;20036;-65
2021/07/07 04:30:36;;;;;;;6.57;5.85;;;15.40;99.90;;;;;;5049816;28;20052;-66
2021/07/07 04:33:02;;;;;;;8.23;6.45;;;15.30;99.90;;;;;;5041323;28;20375;-65
2021/07/07 04:35:29;;;;;;;8.48;6.90;;;15.30;99.90;;;;;;5034677;28;20352;-66
2021/07/07 04:37:55;;;;;;;9.05;6.68;;;15.40;99.90;;;;;;5035999;28;20041;-65
2021/07/07 04:40:22;;;;;;;9.13;7.40;;;15.40;99.90;;;;;;5035863;28;20422;-65
2021/07/07 04:42:48;;;;;;;8.77;6.50;;;15.40;99.90;;;;;;5053224;28;20060;-65
2021/07/07 04:45:14;;;;;;;8.00;7.25;;;15.30;99.90;;;;;;5052583;28;20100;-65
2021/07/07 04:47:40;;;;;;;9.80;7.63;;;15.40;99.90;;;;;;5052095;28;20451;-65
2021/07/07 04:50:12;;;;;;;7.75;6.95;;;15.30;99.90;;;;;;5041315;28;20112;-65
2021/07/07 04:52:38;;;;;;;8.05;6.55;;;15.40;99.90;;;;;;5034303;28;20036;-66
2021/07/07 04:55:08;;;;;;;7.20;5.65;;;15.40;99.90;;;;;;5042130;28;20132;-66
2021/07/07 04:57:40;;;;;;;6.75;5.40;;;15.40;99.90;;;;;;5053565;28;20033;-66
2021/07/07 05:00:17;;;;;;;7.15;6.13;;;15.40;99.90;;;;;;5048124;28;20034;-66
2021/07/07 05:02:44;;;;;;;7.15;5.35;;;15.40;99.90;;;;;;5047274;28;20270;-66
2021/07/07 05:05:56;;;;;;;8.32;5.28;;;15.40;99.90;;;;;;5048661;28;21473;-65
2021/07/07 05:08:22;;;;;;;4.72;4.20;;;15.40;99.90;;;;;;5048204;28;20040;-68
2021/07/07 05:10:48;;;;;;;6.10;3.47;;;15.50;99.90;;;;;;5049962;28;20038;-66
2021/07/07 05:13:13;;;;;;;3.47;2.05;;;15.40;99.90;;;;;;5049281;28;20029;-71
2021/07/07 05:15:39;;;;;;;5.53;3.33;;;15.40;99.90;;;;;;5048594;28;20036;-68
2021/07/07 05:18:10;;;;;;;4.75;3.40;;;15.30;99.90;;;;;;5051348;28;20518;-68
2021/07/07 05:20:36;;;;;;;10.70;5.10;;;15.30;99.90;;;;;;5042337;28;20032;-66
2021/07/07 05:23:06;;;;;;;4.35;3.95;;;15.30;99.90;;;;;;5034118;28;20029;-66
2021/07/07 05:25:33;;;;;;;7.90;3.85;;;15.30;99.90;;;;;;5033619;28;20480;-66
2021/07/07 05:27:58;;;;;;;3.28;2.35;;;15.30;99.90;;;;;;5035289;28;20485;-65
2021/07/07 05:30:25;;;;;;;4.30;2.17;;;15.40;99.90;;;;;;5041612;28;20029;-67
2021/07/07 05:32:51;;;;;;;8.55;2.85;;;15.40;99.90;;;;;;5034084;28;20034;-66
2021/07/07 05:35:17;;;;;;;2.38;1.88;;;15.50;99.90;;;;;;5049957;28;20033;-66
2021/07/07 05:37:44;;;;;;;2.08;1.88;;;15.40;99.90;;;;;;5034510;28;20063;-66
2021/07/07 05:40:10;;;;;;;4.80;1.65;;;15.40;99.90;;;;;;5033966;28;20088;-66
2021/07/07 05:42:36;;;;;;;4.22;2.15;;;15.40;99.90;;;;;;5033158;28;20041;-66
2021/07/07 05:45:03;;;;;;;2.13;1.73;;;15.40;99.90;;;;;;5046714;28;20029;-68
2021/07/07 05:47:29;;;;;;;3.03;1.85;;;15.50;99.90;;;;;;5052110;28;20031;-66
2021/07/07 05:49:56;;;;;;;3.38;1.88;;;15.50;99.90;;;;;;5044447;28;20025;-65
2021/07/07 05:52:23;;;;;;;2.30;1.88;;;15.50;99.90;;;;;;5049411;28;20020;-66
2021/07/07 05:54:48;;;;;;;4.43;2.65;;;15.50;99.90;;;;;;5040126;28;20171;-66
2021/07/07 05:57:14;;;;;;;5.20;2.95;;;15.50;99.90;;;;;;5049901;28;20492;-66
2021/07/07 05:59:39;;;;;;;3.97;2.80;;;15.50;99.90;;;;;;5052057;28;20021;-66
2021/07/07 06:02:05;;;;;;;5.57;2.60;;;15.50;99.90;;;;;;5052400;28;20500;-67
2021/07/07 06:04:31;;;;;;;4.75;2.35;;;15.50;99.90;;;;;;5051099;28;20394;-67
2021/07/07 06:06:56;;;;;;;7.63;2.97;;;15.60;99.90;;;;;;5051849;28;20079;-67
2021/07/07 06:09:22;;;;;;;2.30;2.10;;;15.60;99.90;;;;;;5051914;28;20128;-67
2021/07/07 06:11:48;;;;;;;8.32;2.92;;;15.60;99.90;;;;;;5051391;28;20308;-66
2021/07/07 06:14:13;;;;;;;3.45;2.78;;;15.70;99.90;;;;;;5052174;28;20036;-67
2021/07/07 06:16:39;;;;;;;8.10;3.30;;;15.70;99.90;;;;;;5051484;28;20467;-66
2021/07/07 06:19:05;;;;;;;8.05;3.95;;;15.80;99.90;;;;;;5052174;28;20029;-67
2021/07/07 06:21:31;;;;;;;4.97;2.60;;;15.90;99.90;;;;;;5050811;28;20385;-66
2021/07/07 06:23:57;;;;;;;6.07;2.78;;;15.90;99.90;;;;;;5051859;28;20040;-66
2021/07/07 06:26:27;;;;;;;6.20;2.35;;;15.90;99.90;;;;;;5052147;28;20025;-66
2021/07/07 06:28:53;;;;;;;5.10;2.67;;;15.80;99.90;;;;;;5050324;28;20025;-69
2021/07/07 06:31:19;;;;;;;4.63;2.45;;;15.70;99.90;;;;;;5051711;28;20497;-67
2021/07/07 06:33:44;;;;;;;6.32;2.30;;;15.70;99.90;;;;;;5050624;28;20083;-67
2021/07/07 06:36:10;;;;;;;4.72;2.63;;;15.80;99.90;;;;;;5051579;28;20028;-67
2021/07/07 06:38:36;;;;;;;4.20;2.28;;;15.80;99.90;;;;;;5049403;28;20021;-68
2021/07/07 06:41:01;;;;;;;4.93;2.80;;;15.80;99.90;;;;;;5051669;28;20033;-66
2021/07/07 06:43:27;;;;;;;6.00;2.30;;;15.80;99.90;;;;;;5051046;28;20029;-70
2021/07/07 06:45:53;;;;;;;5.05;2.20;;;15.80;99.90;;;;;;5044948;28;20157;-76
2021/07/07 06:48:18;;;;;;;4.28;2.10;;;15.80;99.90;;;;;;5052286;28;20028;-76
2021/07/07 06:50:45;;;;;;;10.10;2.35;;;15.80;99.90;;;;;;5052310;28;20036;-76
2021/07/07 06:53:11;;;;;;;4.95;2.58;;;15.80;99.90;;;;;;5051685;28;20102;-75
2021/07/07 06:55:37;;;;;;;6.82;2.33;;;15.80;99.90;;;;;;5050147;28;20135;-75
2021/07/07 06:58:05;;;;;;;4.93;2.42;;;15.80;99.90;;;;;;5051011;28;20107;-75
2021/07/07 07:00:31;;;;;;;5.88;2.20;;;15.80;99.90;;;;;;5050262;28;20147;-77
2021/07/07 07:02:57;;;;;;;4.47;2.70;;;15.70;99.90;;;;;;5048614;28;20115;-77
2021/07/07 07:05:23;;;;;;;5.00;2.78;;;15.70;99.90;;;;;;5051087;28;20028;-76
2021/07/07 07:07:49;;;;;;;11.35;3.08;;;15.70;99.90;;;;;;5049649;28;20573;-76
2021/07/07 07:10:15;;;;;;;8.07;2.75;;;15.80;99.90;;;;;;5050704;28;20112;-66
2021/07/07 07:12:41;;;;;;;5.78;2.60;;;15.80;99.90;;;;;;5042715;28;20100;-66
2021/07/07 07:15:11;;;;;;;3.00;2.22;;;15.80;99.90;;;;;;5051659;28;20037;-66
2021/07/07 07:17:37;;;;;;;3.60;2.35;;;15.80;99.90;;;;;;5045344;28;20032;-67
2021/07/07 07:20:06;;;;;;;4.75;2.72;;;15.80;99.90;;;;;;5051214;28;20079;-66
2021/07/07 07:22:31;;;;;;;4.55;2.97;;;15.80;99.90;;;;;;5050004;28;20028;-67
2021/07/07 07:24:57;;;;;;;4.82;2.30;;;15.70;99.90;;;;;;5051340;28;20033;-66
2021/07/07 07:27:23;;;;;;;4.03;2.78;;;15.80;99.90;;;;;;5050394;28;20029;-67
2021/07/07 07:29:48;;;;;;;4.20;2.17;;;15.90;99.90;;;;;;5049912;28;20031;-67
2021/07/07 07:32:14;;;;;;;3.58;2.50;;;15.90;99.90;;;;;;5050448;28;20071;-67
2021/07/07 07:34:40;;;;;;;4.32;2.53;;;16.00;99.90;;;;;;5049921;28;20029;-67
2021/07/07 07:37:06;;;;;;;2.55;1.70;;;16.10;99.90;;;;;;5050765;28;20473;-67
2021/07/07 07:39:41;;;;;;;7.90;2.50;;;16.10;99.90;;;;;;5049304;28;20040;-67
2021/07/07 07:42:12;;;;;;;3.97;2.15;;;16.20;99.90;;;;;;5039692;28;20032;-67
2021/07/07 07:44:38;;;;;;;10.52;2.15;;;16.30;99.90;;;;;;5050204;28;20108;-66
2021/07/07 07:47:04;;;;;;;3.17;1.80;;;16.40;99.90;;;;;;5044551;28;20116;-67
2021/07/07 07:49:30;;;;;;;4.63;1.98;;;16.40;99.90;;;;;;5050464;28;20100;-69
2021/07/07 07:51:55;;;;;;;6.28;1.83;;;16.40;99.90;;;;;;5050846;28;20067;-67
2021/07/07 07:54:21;;;;;;;5.20;1.85;;;16.30;99.90;;;;;;5032978;28;20156;-67
2021/07/07 07:56:47;;;;;;;4.53;2.08;;;16.20;99.90;;;;;;5050295;28;20029;-67
2021/07/07 07:59:13;;;;;;;4.20;2.13;;;16.20;99.90;;;;;;5051190;28;20308;-68
2021/07/07 08:01:40;;;;;;;7.82;2.13;;;16.20;99.90;;;;;;5051145;28;20429;-67
2021/07/07 08:04:06;;;;;;;4.85;2.00;;;16.20;99.90;;;;;;5050650;28;20040;-67
2021/07/07 08:06:31;;;;;;;5.88;1.90;;;16.20;99.90;;;;;;5050757;28;20037;-67
2021/07/07 08:08:58;;;;;;;8.93;1.98;;;16.30;99.90;;;;;;5050017;28;20116;-67
2021/07/07 08:11:24;;;;;;;6.45;2.15;;;16.30;99.90;;;;;;5051230;28;20067;-67
2021/07/07 08:13:50;;;;;;;3.97;2.20;;;16.40;99.90;;;;;;5049890;28;20435;-67
2021/07/07 08:16:16;;;;;;;4.43;2.30;;;16.50;99.90;;;;;;5050617;28;20040;-67
2021/07/07 08:18:41;;;;;;;4.60;1.80;;;16.60;99.90;;;;;;5050234;28;20029;-70
2021/07/07 08:21:07;;;;;;;4.65;2.10;;;16.60;99.90;;;;;;5050201;28;20033;-68
2021/07/07 08:23:33;;;;;;;5.78;2.17;;;16.60;99.90;;;;;;5049412;28;20038;-67
2021/07/07 08:25:59;;;;;;;2.55;1.38;;;16.70;99.90;;;;;;5049665;28;20382;-67
2021/07/07 08:28:25;;;;;;;6.45;1.95;;;16.70;99.90;;;;;;5050872;28;20043;-67
2021/07/07 08:30:51;;;;;;;4.00;1.73;;;16.70;99.90;;;;;;5053717;28;20079;-67
2021/07/07 08:33:17;;;;;;;4.22;1.73;;;16.80;99.90;;;;;;5054427;28;20514;-67
2021/07/07 08:35:43;;;;;;;3.78;1.75;;;16.90;99.90;;;;;;5053475;28;20024;-70
2021/07/07 08:38:09;;;;;;;3.28;1.60;;;16.90;99.90;;;;;;5053942;28;20033;-67
2021/07/07 08:40:35;;;;;;;4.20;2.00;;;16.80;99.90;;;;;;5054529;28;20463;-67
2021/07/07 08:43:00;;;;;;;4.57;1.70;;;16.80;99.90;;;;;;5053772;28;20025;-67
2021/07/07 08:45:26;;;;;;;4.38;1.98;;;16.80;99.90;;;;;;5053898;28;20019;-67
2021/07/07 08:47:52;;;;;;;3.97;1.95;;;16.90;99.90;;;;;;5053667;28;20037;-67
2021/07/07 08:50:20;;;;;;;3.97;1.90;;;16.90;99.90;;;;;;5054557;28;20068;-67
2021/07/07 08:52:46;;;;;;;2.63;1.40;;;17.10;99.90;;;;;;5053998;28;20021;-67
2021/07/07 08:55:14;;;;;;;2.25;1.58;;;17.10;99.90;;;;;;5054472;28;20091;-67
2021/07/07 08:57:44;;;;;;;3.60;1.70;;;17.10;99.90;;;;;;5054307;28;20064;-67
2021/07/07 09:00:15;;;;;;;5.30;1.63;;;17.00;99.90;;;;;;5054440;28;20116;-66
2021/07/07 09:02:49;;;;;;;6.85;1.80;;;17.00;99.90;;;;;;5054494;28;20082;-66
2021/07/07 09:05:15;;;;;;;4.90;1.70;;;17.00;99.90;;;;;;5053891;28;20102;-67
2021/07/07 09:07:40;;;;;;;9.40;1.73;;;17.20;99.90;;;;;;5053483;28;20470;-66
2021/07/07 09:10:07;;;;;;;2.65;1.98;;;17.40;99.90;;;;;;5052980;28;20033;-66
2021/07/07 09:12:35;;;;;;;4.05;1.48;;;17.70;99.90;;;;;;5053752;28;20108;-66
2021/07/07 09:15:07;;;;;;;3.47;1.55;;;18.00;99.90;;;;;;5053201;28;20344;-67
2021/07/07 09:17:42;;;;;;;5.50;1.52;;;18.30;99.90;;;;;;5053991;28;20032;-74
2021/07/07 09:20:30;;;;;;;4.93;1.60;;;18.40;99.90;;;;;;5053684;28;20037;-70
2021/07/07 09:23:14;;;;;;;4.68;1.63;;;18.50;99.90;;;;;;5052980;28;20504;-70
2021/07/07 09:26:05;;;;;;;5.05;1.25;;;18.70;99.90;;;;;;5053817;28;20021;-70
2021/07/07 09:28:32;;;;;;;;;;;18.70;99.90;;;;;;5054305;28;20120;-69
2021/07/07 09:31:04;;;;;;;4.43;1.55;;;18.80;99.90;;;;;;5052176;28;20289;-69
2021/07/07 09:33:43;;;;;;;5.53;1.48;;;18.70;99.90;;;;;;5051226;28;20035;-69
2021/07/07 09:36:22;;;;;;;3.20;1.50;;;18.80;99.90;;;;;;5038007;28;20041;-69
2021/07/07 09:38:49;;;;;;;2.45;1.65;;;18.70;99.90;;;;;;5051523;28;20038;-69
2021/07/07 09:41:15;;;;;;;3.85;1.45;;;18.80;99.90;;;;;;5051519;28;20107;-69
2021/07/07 09:43:51;;;;;;;2.33;1.13;;;18.80;99.90;;;;;;5052870;28;20113;-70
2021/07/07 09:46:18;;;;;;;4.95;1.35;;;18.80;99.90;;;;;;5052231;28;20036;-69
2021/07/07 09:48:45;;;;;;;2.22;1.60;;;18.90;99.90;;;;;;5052505;28;20045;-69
2021/07/07 09:51:11;;;;;;;4.90;1.92;;;18.90;99.90;;;;;;5051621;28;20056;-69
2021/07/07 09:53:37;;;;;;;3.05;1.35;;;18.80;99.90;;;;;;5051988;28;20067;-69
2021/07/07 09:56:04;;;;;;;4.72;1.42;;;18.80;99.90;;;;;;5051613;28;20055;-70
2021/07/07 09:58:30;;;;;;;4.25;1.33;;;18.70;99.90;;;;;;5052453;28;20095;-70
2021/07/07 10:00:56;;;;;;;3.60;1.25;;;18.70;99.90;;;;;;5049927;28;20116;-69
2021/07/07 10:03:22;;;;;;;2.13;1.40;;;18.60;99.90;;;;;;5052821;28;20105;-69
2021/07/07 10:05:48;;;;;;;6.40;2.15;;;18.60;99.90;;;;;;5051730;28;20379;-69
2021/07/07 10:08:14;;;;;;;3.03;1.50;;;18.60;99.90;;;;;;5051600;28;20043;-69
2021/07/07 10:10:41;;;;;;;5.47;1.80;;;18.60;99.90;;;;;;5051551;28;20056;-69
2021/07/07 10:13:09;;;;;;;2.40;1.63;;;18.70;99.90;;;;;;5050940;28;20488;-69
2021/07/07 10:15:36;;;;;;;4.85;2.33;;;18.70;99.90;;;;;;5051634;28;20056;-69
2021/07/07 10:18:04;;;;;;;5.07;2.08;;;18.80;99.90;;;;;;5051300;28;20032;-69
2021/07/07 10:20:30;;;;;;;3.35;1.27;;;18.90;99.90;;;;;;5051867;28;20025;-69
2021/07/07 10:22:58;;;;;;;3.47;1.55;;;19.10;99.90;;;;;;5051363;28;20043;-69
2021/07/07 10:25:27;;;;;;;10.52;1.83;;;19.20;99.90;;;;;;5051419;28;20033;-69
2021/07/07 10:27:56;;;;;;;2.47;1.20;;;19.40;99.90;;;;;;5051025;28;20029;-69
2021/07/07 10:30:42;;;;;;;2.40;1.65;;;19.60;99.90;;;;;;5051225;28;20454;-69
2021/07/07 10:33:09;;;;;;;2.58;1.00;;;19.70;99.90;;;;;;5051009;28;20366;-69
2021/07/07 10:35:36;;;;;;;1.45;1.30;;;19.90;99.90;;;;;;5051367;28;20386;-70
2021/07/07 10:38:05;;;;;;;6.05;1.17;;;20.00;99.90;;;;;;5049280;28;20029;-69
2021/07/07 10:40:32;;;;;;;3.28;1.52;;;20.10;99.90;;;;;;5051109;28;20053;-69
2021/07/07 10:42:57;;;;;;;6.82;1.88;;;20.20;99.90;;;;;;5050785;28;20399;-69
2021/07/07 10:45:49;;;;;;;3.70;1.45;;;20.40;99.90;;;;;;5051089;28;20032;-69
2021/07/07 10:48:28;;;;;;;3.90;1.73;;;20.60;99.90;;;;;;5049695;28;20124;-69
2021/07/07 10:50:56;;;;;;;3.22;1.70;;;20.90;99.90;;;;;;5050515;28;20024;-69
2021/07/07 10:53:23;;;;;;;4.28;1.45;;;20.90;99.90;;;;;;5049967;28;20493;-68
2021/07/07 10:55:49;;;;;;;5.68;1.80;;;21.00;99.90;;;;;;5049146;28;20025;-69
2021/07/07 10:58:25;;;;;;;3.67;1.70;;;21.00;99.90;;;;;;5049704;28;20033;-69
2021/07/07 11:00:51;;;;;;;3.22;1.17;;;21.00;99.90;;;;;;5050571;28;20032;-69
2021/07/07 11:03:39;;;;;;;3.10;1.42;;;21.00;99.90;;;;;;5050978;28;20433;-69
2021/07/07 11:06:23;;;;;;;2.83;1.70;;;21.00;99.90;;;;;;5050370;28;20474;-69
2021/07/07 11:09:09;;;;;;;3.95;1.20;;;21.10;99.90;;;;;;5050842;28;20040;-69
2021/07/07 11:11:37;;;;;;;4.22;1.65;;;21.00;99.90;;;;;;5050494;28;20071;-69
2021/07/07 11:14:10;;;;;;;6.53;1.90;;;21.10;99.90;;;;;;5050359;28;20078;-68
2021/07/07 11:16:50;;;;;;;3.92;1.70;;;21.20;99.90;;;;;;5050081;28;20046;-69
2021/07/07 11:19:42;;;;;;;4.43;1.60;;;21.50;99.90;;;;;;5050234;28;20067;-69
2021/07/07 11:22:10;;;;;;;5.00;1.98;;;21.60;99.90;;;;;;5049625;28;20043;-69
2021/07/07 11:24:37;;;;;;;3.42;1.40;;;21.70;99.60;;;;;;5051025;28;20032;-68
2021/07/07 11:27:04;;;;;;;4.05;1.17;;;21.90;99.40;;;;;;5049951;28;20453;-68
2021/07/07 11:29:31;;;;;;;7.25;2.00;;;21.80;99.00;;;;;;5044009;28;20039;-70
2021/07/07 11:31:57;;;;;;;4.88;1.65;;;21.80;99.40;;;;;;5050929;28;20032;-69
2021/07/07 11:34:23;;;;;;;3.92;1.55;;;21.80;99.90;;;;;;5049772;28;20390;-69
2021/07/07 11:36:48;;;;;;;2.22;1.30;;;21.80;99.90;;;;;;5051018;28;20036;-69
2021/07/07 11:39:20;;;;;;;3.83;1.25;;;21.90;99.90;;;;;;5049831;28;20032;-69
2021/07/07 11:42:05;;;;;;;2.45;1.00;;;22.00;99.90;;;;;;5050867;28;20112;-70
2021/07/07 11:44:43;;;;;;;1.95;1.23;;;22.10;99.60;;;;;;5050635;28;20531;-69
2021/07/07 11:47:11;;;;;;;2.70;1.05;;;22.30;99.20;;;;;;5049009;28;20104;-69
2021/07/07 11:49:37;;;;;;;3.00;1.25;;;22.50;97.40;;;;;;5050573;28;20506;-70
2021/07/07 11:52:06;;;;;;;1.02;0.90;;;22.60;97.90;;;;;;5049749;28;20029;-69
2021/07/07 11:54:47;;;;;;;1.38;0.80;;;22.80;96.20;;;;;;5050331;28;20045;-69
2021/07/07 11:57:14;;;;;;;1.15;0.90;;;22.90;93.10;;;;;;5049648;28;20032;-70
2021/07/07 11:59:40;;;;;;;1.08;0.90;;;22.90;93.80;;;;;;5050990;28;20078;-70
2021/07/07 12:02:05;;;;;;;2.35;1.20;;;22.90;95.30;;;;;;5049017;28;20107;-70
2021/07/07 12:04:31;;;;;;;1.73;0.80;;;23.00;95.60;;;;;;5052097;28;20025;-69
2021/07/07 12:07:00;;;;;;;1.73;0.90;;;23.10;95.40;;;;;;5053464;28;20045;-69
2021/07/07 12:09:28;;;;;;;3.60;0.90;;;23.20;94.20;;;;;;5054321;28;20041;-69
2021/07/07 12:11:59;;;;;;;1.92;0.95;;;23.30;93.40;;;;;;5053143;28;20478;-69
2021/07/07 12:14:28;;;;;;;1.50;0.80;;;23.60;92.50;;;;;;5054557;28;20025;-69
2021/07/07 12:16:55;;;;;;;0.60;0.60;;;24.10;90.30;;;;;;5053674;28;20090;-69
2021/07/07 12:19:21;;;;;;;0.73;0.70;;;24.20;90.20;;;;;;5054496;28;20048;-69
2021/07/07 12:21:50;;;;;;;3.63;0.90;;;24.10;90.00;;;;;;5054510;28;20025;-69
2021/07/07 12:24:15;;;;;;;1.05;0.63;;;24.00;89.00;;;;;;5053764;28;20055;-69
2021/07/07 12:26:44;;;;;;;2.30;0.70;;;23.90;87.50;;;;;;5053762;28;20120;-70
2021/07/07 12:29:14;;;;;;;1.48;0.65;;;23.80;87.20;;;;;;5053086;28;20178;-69
2021/07/07 12:31:43;;;;;;;2.40;1.17;;;23.70;88.20;;;;;;5054303;28;20083;-70
2021/07/07 12:34:09;;;;;;;0.93;0.80;;;23.60;90.10;;;;;;5053294;28;20083;-70
2021/07/07 12:36:38;;;;;;;1.45;0.65;;;23.60;91.20;;;;;;5054022;28;20037;-70
2021/07/07 12:39:13;;;;;;;1.50;0.63;;;23.60;90.40;;;;;;5053084;28;20060;-70
2021/07/07 12:41:42;;;;;;;1.52;0.73;;;23.70;90.50;;;;;;5053789;28;20428;-70
2021/07/07 12:44:09;;;;;;;0.82;0.80;;;23.60;90.90;;;;;;5052911;28;20043;-70
2021/07/07 12:46:59;;;;;;;1.60;1.05;;;23.50;90.10;;;;;;5053454;28;20104;-70
2021/07/07 12:49:44;;;;;;;0.80;0.80;;;23.60;88.80;;;;;;5053806;28;20025;-70